Acton, California
Current Conditions -  °F | °C
As of 11:53 PM on Sunday 23 Nov 2014 (Local Time) from KPMD Reporting Station
Clear Clear  
Wind Chill: 40°   Ceiling: Unl
Heat Index: 40°   Visibility: 10mi
Dew Point: 14°   Wind: 0mph
Humidity: 35%   Direction: NA
Pressure: 30.27"   Gusts: NA
Location:  34.47°N, 118.2°W
Report Text: KPMD 240753Z AUTO 00000KT 10SM CLR 04/M10 A3027 RMK AO2 SLP245 T00441100 401780039
Loading
Personal Weather Stations






























Interactive Weather Map New forecast layout! Learn more

10-Day Weather Forecast

Advertisements
Track Severe Weather on mobile